sensor_id;sensor_type;location;lat;lon;timestamp;temperature;humidity
51305;HTU21D;37392;50.964;6.952;2023-05-29T00:00:03;15.25;83.65
51305;HTU21D;37392;50.964;6.952;2023-05-29T00:02:32;15.04;83.90
51305;HTU21D;37392;50.964;6.952;2023-05-29T00:04:59;15.01;84.45
51305;HTU21D;37392;50.964;6.952;2023-05-29T00:07:28;14.89;84.95
51305;HTU21D;37392;50.964;6.952;2023-05-29T00:09:54;14.85;84.97
51305;HTU21D;37392;50.964;6.952;2023-05-29T00:12:20;14.86;85.32
51305;HTU21D;37392;50.964;6.952;2023-05-29T00:14:47;14.92;85.12
51305;HTU21D;37392;50.964;6.952;2023-05-29T00:17:15;14.91;84.97
51305;HTU21D;37392;50.964;6.952;2023-05-29T00:19:42;14.85;85.09
51305;HTU21D;37392;50.964;6.952;2023-05-29T00:22:08;14.72;85.42
51305;HTU21D;37392;50.964;6.952;2023-05-29T00:24:33;14.73;85.77
51305;HTU21D;37392;50.964;6.952;2023-05-29T00:26:59;14.77;85.55
51305;HTU21D;37392;50.964;6.952;2023-05-29T00:29:24;14.79;85.38
51305;HTU21D;37392;50.964;6.952;2023-05-29T00:31:50;14.68;85.48
51305;HTU21D;37392;50.964;6.952;2023-05-29T00:34:18;14.70;85.62
51305;HTU21D;37392;50.964;6.952;2023-05-29T00:36:44;14.67;85.75
51305;HTU21D;37392;50.964;6.952;2023-05-29T00:39:10;14.73;85.43
51305;HTU21D;37392;50.964;6.952;2023-05-29T00:41:35;14.65;85.41
51305;HTU21D;37392;50.964;6.952;2023-05-29T00:44:01;14.58;85.73
51305;HTU21D;37392;50.964;6.952;2023-05-29T00:46:27;14.57;85.96
51305;HTU21D;37392;50.964;6.952;2023-05-29T00:48:52;14.53;86.10
51305;HTU21D;37392;50.964;6.952;2023-05-29T00:51:18;14.40;86.01
51305;HTU21D;37392;50.964;6.952;2023-05-29T00:53:44;14.29;86.70
51305;HTU21D;37392;50.964;6.952;2023-05-29T00:56:10;14.25;86.93
51305;HTU21D;37392;50.964;6.952;2023-05-29T00:58:35;14.26;87.08
51305;HTU21D;37392;50.964;6.952;2023-05-29T01:01:02;14.23;87.04
51305;HTU21D;37392;50.964;6.952;2023-05-29T01:03:28;14.23;87.26
51305;HTU21D;37392;50.964;6.952;2023-05-29T01:05:53;14.27;86.99
51305;HTU21D;37392;50.964;6.952;2023-05-29T01:08:19;14.14;86.93
51305;HTU21D;37392;50.964;6.952;2023-05-29T01:10:45;14.05;87.44
51305;HTU21D;37392;50.964;6.952;2023-05-29T01:18:19;13.99;88.03
51305;HTU21D;37392;50.964;6.952;2023-05-29T01:20:57;13.94;88.23
51305;HTU21D;37392;50.964;6.952;2023-05-29T01:26:33;13.93;88.02
51305;HTU21D;37392;50.964;6.952;2023-05-29T01:29:18;13.91;88.01
51305;HTU21D;37392;50.964;6.952;2023-05-29T01:31:45;13.95;87.79
51305;HTU21D;37392;50.964;6.952;2023-05-29T01:34:11;13.97;87.55
51305;HTU21D;37392;50.964;6.952;2023-05-29T01:36:37;13.91;87.46
51305;HTU21D;37392;50.964;6.952;2023-05-29T01:39:02;13.96;87.15
51305;HTU21D;37392;50.964;6.952;2023-05-29T01:41:28;13.89;87.29
51305;HTU21D;37392;50.964;6.952;2023-05-29T01:43:55;13.76;87.86
51305;HTU21D;37392;50.964;6.952;2023-05-29T01:46:21;13.73;87.89
51305;HTU21D;37392;50.964;6.952;2023-05-29T01:48:46;13.64;88.10
51305;HTU21D;37392;50.964;6.952;2023-05-29T01:51:12;13.58;88.30
51305;HTU21D;37392;50.964;6.952;2023-05-29T01:53:38;13.51;87.70
51305;HTU21D;37392;50.964;6.952;2023-05-29T01:56:05;13.40;87.88
51305;HTU21D;37392;50.964;6.952;2023-05-29T01:58:31;13.39;88.06
51305;HTU21D;37392;50.964;6.952;2023-05-29T02:00:58;13.38;87.74
51305;HTU21D;37392;50.964;6.952;2023-05-29T02:03:23;13.34;87.76
51305;HTU21D;37392;50.964;6.952;2023-05-29T02:05:49;13.36;87.56
51305;HTU21D;37392;50.964;6.952;2023-05-29T02:08:15;13.26;87.32
51305;HTU21D;37392;50.964;6.952;2023-05-29T02:10:41;13.25;87.03
51305;HTU21D;37392;50.964;6.952;2023-05-29T02:13:06;13.30;86.79
51305;HTU21D;37392;50.964;6.952;2023-05-29T02:15:32;13.24;86.60
51305;HTU21D;37392;50.964;6.952;2023-05-29T02:17:57;13.17;86.87
51305;HTU21D;37392;50.964;6.952;2023-05-29T02:20:23;13.07;87.12
51305;HTU21D;37392;50.964;6.952;2023-05-29T02:22:49;13.01;87.68
51305;HTU21D;37392;50.964;6.952;2023-05-29T02:25:15;12.95;87.87
51305;HTU21D;37392;50.964;6.952;2023-05-29T02:27:40;12.93;88.07
51305;HTU21D;37392;50.964;6.952;2023-05-29T02:30:06;12.93;88.17
51305;HTU21D;37392;50.964;6.952;2023-05-29T02:32:33;13.00;88.33
51305;HTU21D;37392;50.964;6.952;2023-05-29T02:34:58;12.89;88.35
51305;HTU21D;37392;50.964;6.952;2023-05-29T02:37:24;12.85;88.68
51305;HTU21D;37392;50.964;6.952;2023-05-29T02:39:51;12.85;88.69
51305;HTU21D;37392;50.964;6.952;2023-05-29T02:42:17;12.78;88.82
51305;HTU21D;37392;50.964;6.952;2023-05-29T02:44:42;12.71;89.21
51305;HTU21D;37392;50.964;6.952;2023-05-29T02:47:07;12.62;89.50
51305;HTU21D;37392;50.964;6.952;2023-05-29T02:49:33;12.64;89.60
51305;HTU21D;37392;50.964;6.952;2023-05-29T02:51:58;12.59;89.55
51305;HTU21D;37392;50.964;6.952;2023-05-29T02:54:24;12.64;89.45
51305;HTU21D;37392;50.964;6.952;2023-05-29T02:56:50;12.64;89.50
51305;HTU21D;37392;50.964;6.952;2023-05-29T02:59:16;12.70;89.21
51305;HTU21D;37392;50.964;6.952;2023-05-29T03:01:41;12.59;89.57
51305;HTU21D;37392;50.964;6.952;2023-05-29T03:04:08;12.48;89.86
51305;HTU21D;37392;50.964;6.952;2023-05-29T03:06:35;12.37;90.47
51305;HTU21D;37392;50.964;6.952;2023-05-29T03:09:02;12.23;91.02
51305;HTU21D;37392;50.964;6.952;2023-05-29T03:11:27;12.14;91.50
51305;HTU21D;37392;50.964;6.952;2023-05-29T03:13:54;12.15;91.92
51305;HTU21D;37392;50.964;6.952;2023-05-29T03:16:20;12.15;91.87
51305;HTU21D;37392;50.964;6.952;2023-05-29T03:18:46;12.10;91.97
51305;HTU21D;37392;50.964;6.952;2023-05-29T03:21:11;12.14;92.11
51305;HTU21D;37392;50.964;6.952;2023-05-29T03:23:37;12.06;92.11
51305;HTU21D;37392;50.964;6.952;2023-05-29T03:26:03;12.02;92.49
51305;HTU21D;37392;50.964;6.952;2023-05-29T03:28:29;12.05;92.65
51305;HTU21D;37392;50.964;6.952;2023-05-29T03:30:54;12.02;92.77
51305;HTU21D;37392;50.964;6.952;2023-05-29T03:33:20;11.99;92.95
51305;HTU21D;37392;50.964;6.952;2023-05-29T03:35:45;11.96;93.10
51305;HTU21D;37392;50.964;6.952;2023-05-29T03:38:11;11.92;93.27
51305;HTU21D;37392;50.964;6.952;2023-05-29T03:40:36;11.91;93.46
51305;HTU21D;37392;50.964;6.952;2023-05-29T03:43:02;11.98;93.63
51305;HTU21D;37392;50.964;6.952;2023-05-29T03:45:27;11.93;93.54
51305;HTU21D;37392;50.964;6.952;2023-05-29T03:47:52;12.02;93.35
51305;HTU21D;37392;50.964;6.952;2023-05-29T03:50:18;12.02;93.29
51305;HTU21D;37392;50.964;6.952;2023-05-29T03:52:43;12.06;93.08
51305;HTU21D;37392;50.964;6.952;2023-05-29T03:55:09;12.13;92.63
51305;HTU21D;37392;50.964;6.952;2023-05-29T03:57:39;12.16;92.16
51305;HTU21D;37392;50.964;6.952;2023-05-29T04:00:09;12.19;91.93
51305;HTU21D;37392;50.964;6.952;2023-05-29T04:02:36;12.26;91.77
51305;HTU21D;37392;50.964;6.952;2023-05-29T04:05:04;12.26;91.67
51305;HTU21D;37392;50.964;6.952;2023-05-29T04:07:32;12.27;91.58
51305;HTU21D;37392;50.964;6.952;2023-05-29T04:09:57;12.36;91.19
51305;HTU21D;37392;50.964;6.952;2023-05-29T04:12:23;12.45;91.18
51305;HTU21D;37392;50.964;6.952;2023-05-29T04:14:48;12.67;90.20
51305;HTU21D;37392;50.964;6.952;2023-05-29T04:17:14;12.95;89.44
51305;HTU21D;37392;50.964;6.952;2023-05-29T04:19:39;13.46;88.14
51305;HTU21D;37392;50.964;6.952;2023-05-29T04:22:05;14.18;85.67
51305;HTU21D;37392;50.964;6.952;2023-05-29T04:24:30;14.97;82.86
51305;HTU21D;37392;50.964;6.952;2023-05-29T04:26:57;15.48;79.42
51305;HTU21D;37392;50.964;6.952;2023-05-29T04:29:25;15.80;77.20
51305;HTU21D;37392;50.964;6.952;2023-05-29T04:31:51;16.01;77.01
51305;HTU21D;37392;50.964;6.952;2023-05-29T04:34:17;16.46;75.61
51305;HTU21D;37392;50.964;6.952;2023-05-29T04:36:42;16.93;73.45
51305;HTU21D;37392;50.964;6.952;2023-05-29T04:39:08;17.16;72.61
51305;HTU21D;37392;50.964;6.952;2023-05-29T04:41:34;17.25;72.21
51305;HTU21D;37392;50.964;6.952;2023-05-29T04:44:00;17.67;70.48
51305;HTU21D;37392;50.964;6.952;2023-05-29T04:46:26;17.49;69.87
51305;HTU21D;37392;50.964;6.952;2023-05-29T04:48:52;17.53;70.45
51305;HTU21D;37392;50.964;6.952;2023-05-29T04:51:21;18.17;69.80
51305;HTU21D;37392;50.964;6.952;2023-05-29T04:53:47;17.96;69.32
51305;HTU21D;37392;50.964;6.952;2023-05-29T04:56:13;18.84;67.40
51305;HTU21D;37392;50.964;6.952;2023-05-29T04:58:39;19.47;64.86
51305;HTU21D;37392;50.964;6.952;2023-05-29T05:01:06;20.01;63.53
51305;HTU21D;37392;50.964;6.952;2023-05-29T05:03:33;20.45;61.95
51305;HTU21D;37392;50.964;6.952;2023-05-29T05:05:59;19.95;61.86
51305;HTU21D;37392;50.964;6.952;2023-05-29T05:08:25;20.53;61.67
51305;HTU21D;37392;50.964;6.952;2023-05-29T05:10:50;21.27;59.75
51305;HTU21D;37392;50.964;6.952;2023-05-29T05:13:16;21.45;58.32
51305;HTU21D;37392;50.964;6.952;2023-05-29T05:15:41;21.70;58.06
51305;HTU21D;37392;50.964;6.952;2023-05-29T05:18:07;21.89;57.51
51305;HTU21D;37392;50.964;6.952;2023-05-29T05:20:32;22.02;56.70
51305;HTU21D;37392;50.964;6.952;2023-05-29T05:22:57;22.76;55.58
51305;HTU21D;37392;50.964;6.952;2023-05-29T05:25:25;22.51;54.67
51305;HTU21D;37392;50.964;6.952;2023-05-29T05:27:50;22.90;54.62
51305;HTU21D;37392;50.964;6.952;2023-05-29T05:30:15;23.47;53.04
51305;HTU21D;37392;50.964;6.952;2023-05-29T05:32:41;24.20;51.56
51305;HTU21D;37392;50.964;6.952;2023-05-29T05:35:06;24.45;50.60
51305;HTU21D;37392;50.964;6.952;2023-05-29T05:37:35;24.73;50.32
51305;HTU21D;37392;50.964;6.952;2023-05-29T05:40:00;24.53;49.65
51305;HTU21D;37392;50.964;6.952;2023-05-29T05:42:26;24.68;50.05
51305;HTU21D;37392;50.964;6.952;2023-05-29T05:44:51;25.12;49.05
51305;HTU21D;37392;50.964;6.952;2023-05-29T05:47:17;25.32;48.62
51305;HTU21D;37392;50.964;6.952;2023-05-29T05:49:43;25.64;47.86
51305;HTU21D;37392;50.964;6.952;2023-05-29T05:52:08;25.35;48.06
51305;HTU21D;37392;50.964;6.952;2023-05-29T05:54:34;25.39;48.10
51305;HTU21D;37392;50.964;6.952;2023-05-29T05:57:00;25.83;47.12
51305;HTU21D;37392;50.964;6.952;2023-05-29T05:59:25;26.37;46.03
51305;HTU21D;37392;50.964;6.952;2023-05-29T06:01:51;26.64;45.52
51305;HTU21D;37392;50.964;6.952;2023-05-29T06:04:17;26.21;45.70
51305;HTU21D;37392;50.964;6.952;2023-05-29T06:06:43;26.49;45.46
51305;HTU21D;37392;50.964;6.952;2023-05-29T06:09:09;26.45;45.54
51305;HTU21D;37392;50.964;6.952;2023-05-29T06:11:36;26.62;45.03
51305;HTU21D;37392;50.964;6.952;2023-05-29T06:14:02;26.93;44.68
51305;HTU21D;37392;50.964;6.952;2023-05-29T06:16:28;27.31;43.84
51305;HTU21D;37392;50.964;6.952;2023-05-29T06:18:54;27.32;43.66
51305;HTU21D;37392;50.964;6.952;2023-05-29T06:21:20;27.75;42.97
51305;HTU21D;37392;50.964;6.952;2023-05-29T06:23:45;26.24;44.70
51305;HTU21D;37392;50.964;6.952;2023-05-29T06:26:11;26.42;44.45
51305;HTU21D;37392;50.964;6.952;2023-05-29T06:28:37;26.77;44.48
51305;HTU21D;37392;50.964;6.952;2023-05-29T06:31:02;27.61;43.02
51305;HTU21D;37392;50.964;6.952;2023-05-29T06:33:28;27.65;42.49
51305;HTU21D;37392;50.964;6.952;2023-05-29T06:35:55;27.89;42.30
51305;HTU21D;37392;50.964;6.952;2023-05-29T06:38:20;28.67;41.32
51305;HTU21D;37392;50.964;6.952;2023-05-29T06:40:46;28.49;40.79
51305;HTU21D;37392;50.964;6.952;2023-05-29T06:43:11;28.69;40.85
51305;HTU21D;37392;50.964;6.952;2023-05-29T06:45:37;29.18;40.10
51305;HTU21D;37392;50.964;6.952;2023-05-29T06:48:03;28.69;40.50
51305;HTU21D;37392;50.964;6.952;2023-05-29T06:50:28;29.21;39.61
51305;HTU21D;37392;50.964;6.952;2023-05-29T06:52:54;29.07;39.66
51305;HTU21D;37392;50.964;6.952;2023-05-29T06:55:19;29.05;39.80
51305;HTU21D;37392;50.964;6.952;2023-05-29T06:57:45;28.99;39.97
51305;HTU21D;37392;50.964;6.952;2023-05-29T07:00:11;29.18;39.49
51305;HTU21D;37392;50.964;6.952;2023-05-29T07:02:37;29.61;39.29
51305;HTU21D;37392;50.964;6.952;2023-05-29T07:05:03;30.17;38.11
51305;HTU21D;37392;50.964;6.952;2023-05-29T07:07:28;30.18;37.93
51305;HTU21D;37392;50.964;6.952;2023-05-29T07:09:54;30.56;37.14
51305;HTU21D;37392;50.964;6.952;2023-05-29T07:12:21;30.03;37.49
51305;HTU21D;37392;50.964;6.952;2023-05-29T07:14:47;30.55;37.54
51305;HTU21D;37392;50.964;6.952;2023-05-29T07:17:13;29.94;37.69
51305;HTU21D;37392;50.964;6.952;2023-05-29T07:19:39;30.66;37.17
51305;HTU21D;37392;50.964;6.952;2023-05-29T07:22:05;30.77;37.42
51305;HTU21D;37392;50.964;6.952;2023-05-29T07:24:30;31.09;36.71
51305;HTU21D;37392;50.964;6.952;2023-05-29T07:26:56;30.66;36.76
51305;HTU21D;37392;50.964;6.952;2023-05-29T07:29:22;31.30;36.36
51305;HTU21D;37392;50.964;6.952;2023-05-29T07:31:48;31.45;36.24
51305;HTU21D;37392;50.964;6.952;2023-05-29T07:34:14;31.57;36.11
51305;HTU21D;37392;50.964;6.952;2023-05-29T07:39:25;30.62;37.45
51305;HTU21D;37392;50.964;6.952;2023-05-29T07:41:51;30.48;37.40
51305;HTU21D;37392;50.964;6.952;2023-05-29T07:44:17;30.25;37.62
51305;HTU21D;37392;50.964;6.952;2023-05-29T07:46:43;30.97;36.45
51305;HTU21D;37392;50.964;6.952;2023-05-29T07:49:08;30.60;37.54
51305;HTU21D;37392;50.964;6.952;2023-05-29T07:51:34;30.76;37.29
51305;HTU21D;37392;50.964;6.952;2023-05-29T07:53:59;30.21;38.08
51305;HTU21D;37392;50.964;6.952;2023-05-29T07:56:25;31.02;36.72
51305;HTU21D;37392;50.964;6.952;2023-05-29T07:58:50;31.29;36.25
51305;HTU21D;37392;50.964;6.952;2023-05-29T08:01:18;31.55;35.73
51305;HTU21D;37392;50.964;6.952;2023-05-29T08:03:44;32.28;34.98
51305;HTU21D;37392;50.964;6.952;2023-05-29T08:06:10;32.24;34.91
51305;HTU21D;37392;50.964;6.952;2023-05-29T08:08:35;32.41;34.86
51305;HTU21D;37392;50.964;6.952;2023-05-29T08:11:01;32.33;34.93
51305;HTU21D;37392;50.964;6.952;2023-05-29T08:13:27;32.20;35.01
51305;HTU21D;37392;50.964;6.952;2023-05-29T08:15:53;31.92;35.38
51305;HTU21D;37392;50.964;6.952;2023-05-29T08:18:18;31.25;36.05
51305;HTU21D;37392;50.964;6.952;2023-05-29T08:20:44;30.41;37.56
51305;HTU21D;37392;50.964;6.952;2023-05-29T08:23:10;31.25;36.92
51305;HTU21D;37392;50.964;6.952;2023-05-29T08:25:35;32.03;35.25
51305;HTU21D;37392;50.964;6.952;2023-05-29T08:28:01;32.29;34.86
51305;HTU21D;37392;50.964;6.952;2023-05-29T08:30:26;32.26;34.86
51305;HTU21D;37392;50.964;6.952;2023-05-29T08:32:52;32.12;35.09
51305;HTU21D;37392;50.964;6.952;2023-05-29T08:35:17;32.54;34.85
51305;HTU21D;37392;50.964;6.952;2023-05-29T08:37:43;32.82;33.91
51305;HTU21D;37392;50.964;6.952;2023-05-29T08:40:08;32.86;34.22
51305;HTU21D;37392;50.964;6.952;2023-05-29T08:43:21;32.69;34.88
51305;HTU21D;37392;50.964;6.952;2023-05-29T08:45:25;33.03;34.18
51305;HTU21D;37392;50.964;6.952;2023-05-29T08:47:52;33.57;33.58
51305;HTU21D;37392;50.964;6.952;2023-05-29T08:50:19;32.96;33.83
51305;HTU21D;37392;50.964;6.952;2023-05-29T08:52:46;32.93;33.91
51305;HTU21D;37392;50.964;6.952;2023-05-29T08:55:11;32.78;34.60
51305;HTU21D;37392;50.964;6.952;2023-05-29T08:57:37;32.99;34.12
51305;HTU21D;37392;50.964;6.952;2023-05-29T09:00:08;33.06;34.31
51305;HTU21D;37392;50.964;6.952;2023-05-29T09:02:40;33.41;33.75
51305;HTU21D;37392;50.964;6.952;2023-05-29T09:05:06;34.40;32.67
51305;HTU21D;37392;50.964;6.952;2023-05-29T09:07:33;34.61;32.23
51305;HTU21D;37392;50.964;6.952;2023-05-29T09:09:59;34.37;32.30
51305;HTU21D;37392;50.964;6.952;2023-05-29T09:12:25;33.77;32.60
51305;HTU21D;37392;50.964;6.952;2023-05-29T09:14:51;32.96;33.96
51305;HTU21D;37392;50.964;6.952;2023-05-29T09:17:17;32.84;34.09
51305;HTU21D;37392;50.964;6.952;2023-05-29T09:19:43;32.55;34.72
51305;HTU21D;37392;50.964;6.952;2023-05-29T09:22:11;32.83;34.28
51305;HTU21D;37392;50.964;6.952;2023-05-29T09:24:40;32.66;34.60
51305;HTU21D;37392;50.964;6.952;2023-05-29T09:27:07;33.28;33.50
51305;HTU21D;37392;50.964;6.952;2023-05-29T09:29:37;33.28;33.65
51305;HTU21D;37392;50.964;6.952;2023-05-29T09:32:06;33.37;33.38
51305;HTU21D;37392;50.964;6.952;2023-05-29T09:34:35;33.15;33.75
51305;HTU21D;37392;50.964;6.952;2023-05-29T09:37:05;33.14;33.95
51305;HTU21D;37392;50.964;6.952;2023-05-29T09:39:49;33.14;33.92
51305;HTU21D;37392;50.964;6.952;2023-05-29T09:42:21;33.31;33.98
51305;HTU21D;37392;50.964;6.952;2023-05-29T09:44:50;32.88;34.25
51305;HTU21D;37392;50.964;6.952;2023-05-29T09:47:19;32.55;35.01
51305;HTU21D;37392;50.964;6.952;2023-05-29T09:49:45;32.78;35.05
51305;HTU21D;37392;50.964;6.952;2023-05-29T09:52:15;32.98;34.54
51305;HTU21D;37392;50.964;6.952;2023-05-29T09:54:43;32.62;34.57
51305;HTU21D;37392;50.964;6.952;2023-05-29T09:57:10;33.07;34.47
51305;HTU21D;37392;50.964;6.952;2023-05-29T09:59:38;33.35;34.00
51305;HTU21D;37392;50.964;6.952;2023-05-29T10:02:04;33.05;34.48
51305;HTU21D;37392;50.964;6.952;2023-05-29T10:04:32;33.04;34.70
51305;HTU21D;37392;50.964;6.952;2023-05-29T10:06:59;32.98;34.48
51305;HTU21D;37392;50.964;6.952;2023-05-29T10:09:27;32.98;34.86
51305;HTU21D;37392;50.964;6.952;2023-05-29T10:11:54;33.12;34.56
51305;HTU21D;37392;50.964;6.952;2023-05-29T10:14:23;33.40;33.91
51305;HTU21D;37392;50.964;6.952;2023-05-29T10:16:50;33.51;34.01
51305;HTU21D;37392;50.964;6.952;2023-05-29T10:19:22;32.82;34.57
51305;HTU21D;37392;50.964;6.952;2023-05-29T10:21:51;33.05;34.89
51305;HTU21D;37392;50.964;6.952;2023-05-29T10:24:17;33.48;33.79
51305;HTU21D;37392;50.964;6.952;2023-05-29T10:26:43;32.73;35.05
51305;HTU21D;37392;50.964;6.952;2023-05-29T10:29:14;32.67;34.99
51305;HTU21D;37392;50.964;6.952;2023-05-29T10:31:43;32.29;35.84
51305;HTU21D;37392;50.964;6.952;2023-05-29T10:34:18;32.56;35.62
51305;HTU21D;37392;50.964;6.952;2023-05-29T10:36:48;32.91;34.95
51305;HTU21D;37392;50.964;6.952;2023-05-29T10:39:17;32.82;35.23
51305;HTU21D;37392;50.964;6.952;2023-05-29T10:41:46;33.04;34.82
51305;HTU21D;37392;50.964;6.952;2023-05-29T10:49:23;32.29;35.66
51305;HTU21D;37392;50.964;6.952;2023-05-29T10:51:48;32.16;35.75
51305;HTU21D;37392;50.964;6.952;2023-05-29T10:54:15;32.19;35.79
51305;HTU21D;37392;50.964;6.952;2023-05-29T10:56:41;32.26;35.82
51305;HTU21D;37392;50.964;6.952;2023-05-29T10:59:10;32.05;36.13
51305;HTU21D;37392;50.964;6.952;2023-05-29T11:01:38;32.04;36.04
51305;HTU21D;37392;50.964;6.952;2023-05-29T11:06:52;31.75;36.50
51305;HTU21D;37392;50.964;6.952;2023-05-29T11:12:15;30.54;37.83
51305;HTU21D;37392;50.964;6.952;2023-05-29T11:15:02;30.03;39.01
51305;HTU21D;37392;50.964;6.952;2023-05-29T11:17:32;29.94;39.32
51305;HTU21D;37392;50.964;6.952;2023-05-29T11:20:09;30.00;39.35
51305;HTU21D;37392;50.964;6.952;2023-05-29T11:25:46;29.83;39.44
51305;HTU21D;37392;50.964;6.952;2023-05-29T11:28:13;29.68;40.07
51305;HTU21D;37392;50.964;6.952;2023-05-29T11:30:47;29.07;40.80
51305;HTU21D;37392;50.964;6.952;2023-05-29T11:33:23;28.40;41.96
51305;HTU21D;37392;50.964;6.952;2023-05-29T11:35:57;28.08;42.55
51305;HTU21D;37392;50.964;6.952;2023-05-29T11:38:25;27.82;43.26
51305;HTU21D;37392;50.964;6.952;2023-05-29T11:40:52;27.51;43.88
51305;HTU21D;37392;50.964;6.952;2023-05-29T11:43:20;27.35;44.16
51305;HTU21D;37392;50.964;6.952;2023-05-29T11:45:46;27.15;44.67
51305;HTU21D;37392;50.964;6.952;2023-05-29T11:48:11;27.05;45.09
51305;HTU21D;37392;50.964;6.952;2023-05-29T11:50:37;26.73;45.57
51305;HTU21D;37392;50.964;6.952;2023-05-29T11:53:03;26.56;46.01
51305;HTU21D;37392;50.964;6.952;2023-05-29T11:55:31;26.43;46.18
51305;HTU21D;37392;50.964;6.952;2023-05-29T11:58:00;26.18;46.55
51305;HTU21D;37392;50.964;6.952;2023-05-29T12:00:34;25.91;46.97
51305;HTU21D;37392;50.964;6.952;2023-05-29T12:03:03;25.44;48.35
51305;HTU21D;37392;50.964;6.952;2023-05-29T12:05:30;25.54;48.50
51305;HTU21D;37392;50.964;6.952;2023-05-29T12:07:56;25.45;48.49
51305;HTU21D;37392;50.964;6.952;2023-05-29T12:10:23;25.13;48.82
51305;HTU21D;37392;50.964;6.952;2023-05-29T12:13:06;25.36;48.61
51305;HTU21D;37392;50.964;6.952;2023-05-29T12:15:32;25.30;48.83
51305;HTU21D;37392;50.964;6.952;2023-05-29T12:17:57;25.56;48.05
51305;HTU21D;37392;50.964;6.952;2023-05-29T12:20:24;25.47;47.97
51305;HTU21D;37392;50.964;6.952;2023-05-29T12:22:51;25.30;48.72
51305;HTU21D;37392;50.964;6.952;2023-05-29T12:25:19;25.23;48.72
51305;HTU21D;37392;50.964;6.952;2023-05-29T12:27:45;25.24;48.54
51305;HTU21D;37392;50.964;6.952;2023-05-29T12:32:43;25.25;48.25
51305;HTU21D;37392;50.964;6.952;2023-05-29T12:35:13;25.17;48.37
51305;HTU21D;37392;50.964;6.952;2023-05-29T12:37:44;24.99;48.60
51305;HTU21D;37392;50.964;6.952;2023-05-29T12:40:20;24.75;49.04
51305;HTU21D;37392;50.964;6.952;2023-05-29T12:42:47;24.66;49.37
51305;HTU21D;37392;50.964;6.952;2023-05-29T12:45:13;24.71;49.11
51305;HTU21D;37392;50.964;6.952;2023-05-29T12:48:12;24.64;49.64
51305;HTU21D;37392;50.964;6.952;2023-05-29T12:50:35;24.66;49.71
51305;HTU21D;37392;50.964;6.952;2023-05-29T12:53:11;24.71;49.76
51305;HTU21D;37392;50.964;6.952;2023-05-29T12:55:43;24.66;49.78
51305;HTU21D;37392;50.964;6.952;2023-05-29T12:58:09;24.60;49.62
51305;HTU21D;37392;50.964;6.952;2023-05-29T13:00:41;24.40;50.28
51305;HTU21D;37392;50.964;6.952;2023-05-29T13:03:07;24.39;50.76
51305;HTU21D;37392;50.964;6.952;2023-05-29T13:05:33;24.38;50.75
51305;HTU21D;37392;50.964;6.952;2023-05-29T13:07:59;24.19;50.83
51305;HTU21D;37392;50.964;6.952;2023-05-29T13:10:25;24.01;50.76
51305;HTU21D;37392;50.964;6.952;2023-05-29T13:12:53;24.00;50.83
51305;HTU21D;37392;50.964;6.952;2023-05-29T13:15:20;24.09;51.00
51305;HTU21D;37392;50.964;6.952;2023-05-29T13:17:47;23.97;50.88
51305;HTU21D;37392;50.964;6.952;2023-05-29T13:20:13;23.75;51.40
51305;HTU21D;37392;50.964;6.952;2023-05-29T13:22:39;23.81;51.50
51305;HTU21D;37392;50.964;6.952;2023-05-29T13:25:05;23.81;51.07
51305;HTU21D;37392;50.964;6.952;2023-05-29T13:27:32;23.73;51.21
51305;HTU21D;37392;50.964;6.952;2023-05-29T13:29:59;23.44;51.46
51305;HTU21D;37392;50.964;6.952;2023-05-29T13:32:25;23.23;51.49
51305;HTU21D;37392;50.964;6.952;2023-05-29T13:34:50;22.99;51.74
51305;HTU21D;37392;50.964;6.952;2023-05-29T13:37:16;23.05;51.78
51305;HTU21D;37392;50.964;6.952;2023-05-29T13:39:41;23.14;52.07
51305;HTU21D;37392;50.964;6.952;2023-05-29T13:42:07;23.36;52.05
51305;HTU21D;37392;50.964;6.952;2023-05-29T13:44:33;23.42;51.85
51305;HTU21D;37392;50.964;6.952;2023-05-29T13:46:58;23.52;51.93
51305;HTU21D;37392;50.964;6.952;2023-05-29T13:49:25;23.61;51.59
51305;HTU21D;37392;50.964;6.952;2023-05-29T13:51:51;23.67;51.40
51305;HTU21D;37392;50.964;6.952;2023-05-29T13:54:17;23.83;51.08
51305;HTU21D;37392;50.964;6.952;2023-05-29T13:56:46;24.04;50.32
51305;HTU21D;37392;50.964;6.952;2023-05-29T13:59:12;23.90;50.71
51305;HTU21D;37392;50.964;6.952;2023-05-29T14:01:37;23.92;50.80
51305;HTU21D;37392;50.964;6.952;2023-05-29T14:04:03;23.66;50.69
51305;HTU21D;37392;50.964;6.952;2023-05-29T14:06:28;23.64;51.27
51305;HTU21D;37392;50.964;6.952;2023-05-29T14:08:54;23.64;51.20
51305;HTU21D;37392;50.964;6.952;2023-05-29T14:11:21;23.49;51.67
51305;HTU21D;37392;50.964;6.952;2023-05-29T14:13:46;23.49;51.54
51305;HTU21D;37392;50.964;6.952;2023-05-29T14:16:12;23.41;52.09
51305;HTU21D;37392;50.964;6.952;2023-05-29T14:18:39;23.21;52.11
51305;HTU21D;37392;50.964;6.952;2023-05-29T14:21:04;23.17;52.43
51305;HTU21D;37392;50.964;6.952;2023-05-29T14:23:30;23.21;52.30
51305;HTU21D;37392;50.964;6.952;2023-05-29T14:25:55;23.16;52.17
51305;HTU21D;37392;50.964;6.952;2023-05-29T14:28:21;23.10;52.43
51305;HTU21D;37392;50.964;6.952;2023-05-29T14:30:46;22.85;52.50
51305;HTU21D;37392;50.964;6.952;2023-05-29T14:33:11;22.73;53.23
51305;HTU21D;37392;50.964;6.952;2023-05-29T14:35:37;22.63;53.36
51305;HTU21D;37392;50.964;6.952;2023-05-29T14:38:02;22.61;53.64
51305;HTU21D;37392;50.964;6.952;2023-05-29T14:40:30;22.63;53.59
51305;HTU21D;37392;50.964;6.952;2023-05-29T14:42:59;22.52;54.17
51305;HTU21D;37392;50.964;6.952;2023-05-29T14:45:24;22.53;54.09
51305;HTU21D;37392;50.964;6.952;2023-05-29T14:47:50;22.55;53.75
51305;HTU21D;37392;50.964;6.952;2023-05-29T14:50:16;22.52;53.89
51305;HTU21D;37392;50.964;6.952;2023-05-29T14:52:41;22.55;53.72
51305;HTU21D;37392;50.964;6.952;2023-05-29T14:55:07;22.49;54.09
51305;HTU21D;37392;50.964;6.952;2023-05-29T14:57:32;22.43;54.41
51305;HTU21D;37392;50.964;6.952;2023-05-29T15:00:00;22.28;54.49
51305;HTU21D;37392;50.964;6.952;2023-05-29T15:02:25;22.26;54.49
51305;HTU21D;37392;50.964;6.952;2023-05-29T15:04:51;22.18;54.97
51305;HTU21D;37392;50.964;6.952;2023-05-29T15:07:16;22.23;54.87
51305;HTU21D;37392;50.964;6.952;2023-05-29T15:09:42;22.24;54.76
51305;HTU21D;37392;50.964;6.952;2023-05-29T15:12:08;22.18;54.75
51305;HTU21D;37392;50.964;6.952;2023-05-29T15:14:34;22.21;54.65
51305;HTU21D;37392;50.964;6.952;2023-05-29T15:16:59;22.19;54.67
51305;HTU21D;37392;50.964;6.952;2023-05-29T15:19:25;22.26;54.97
51305;HTU21D;37392;50.964;6.952;2023-05-29T15:21:51;22.37;54.55
51305;HTU21D;37392;50.964;6.952;2023-05-29T15:24:16;22.33;54.49
51305;HTU21D;37392;50.964;6.952;2023-05-29T15:26:41;22.26;54.55
51305;HTU21D;37392;50.964;6.952;2023-05-29T15:29:07;22.29;54.57
51305;HTU21D;37392;50.964;6.952;2023-05-29T15:31:32;22.26;54.38
51305;HTU21D;37392;50.964;6.952;2023-05-29T15:33:58;22.26;54.55
51305;HTU21D;37392;50.964;6.952;2023-05-29T15:36:23;22.21;54.46
51305;HTU21D;37392;50.964;6.952;2023-05-29T15:38:49;22.09;54.52